sensor_id;sensor_type;location;lat;lon;timestamp;P1;durP1;ratioP1;P2;durP2;ratioP2
55455;SDS011;63021;52.836;6.376;2023-08-24T00:02:00;2.97;;;2.50;;
55455;SDS011;63021;52.836;6.376;2023-08-24T00:04:26;4.68;;;2.08;;
55455;SDS011;63021;52.836;6.376;2023-08-24T00:06:52;4.55;;;2.00;;
55455;SDS011;63021;52.836;6.376;2023-08-24T00:09:18;3.67;;;2.25;;
55455;SDS011;63021;52.836;6.376;2023-08-24T00:11:43;2.63;;;2.42;;
55455;SDS011;63021;52.836;6.376;2023-08-24T00:14:09;3.90;;;2.33;;
55455;SDS011;63021;52.836;6.376;2023-08-24T00:16:35;5.95;;;2.75;;
55455;SDS011;63021;52.836;6.376;2023-08-24T00:19:00;7.78;;;2.58;;
55455;SDS011;63021;52.836;6.376;2023-08-24T00:21:26;3.90;;;2.53;;
55455;SDS011;63021;52.836;6.376;2023-08-24T00:23:51;2.88;;;2.58;;
55455;SDS011;63021;52.836;6.376;2023-08-24T00:26:17;5.05;;;3.50;;
55455;SDS011;63021;52.836;6.376;2023-08-24T00:28:43;2.92;;;2.50;;
55455;SDS011;63021;52.836;6.376;2023-08-24T00:31:09;2.80;;;2.60;;
55455;SDS011;63021;52.836;6.376;2023-08-24T00:33:37;3.60;;;2.45;;
55455;SDS011;63021;52.836;6.376;2023-08-24T00:36:03;3.70;;;3.30;;
55455;SDS011;63021;52.836;6.376;2023-08-24T00:38:30;4.00;;;3.67;;
55455;SDS011;63021;52.836;6.376;2023-08-24T00:40:56;3.70;;;3.40;;
55455;SDS011;63021;52.836;6.376;2023-08-24T00:43:21;6.53;;;3.85;;
55455;SDS011;63021;52.836;6.376;2023-08-24T00:45:52;3.15;;;2.90;;
55455;SDS011;63021;52.836;6.376;2023-08-24T00:48:21;4.23;;;2.87;;
55455;SDS011;63021;52.836;6.376;2023-08-24T00:50:51;5.80;;;3.75;;
55455;SDS011;63021;52.836;6.376;2023-08-24T00:53:18;4.28;;;3.90;;
55455;SDS011;63021;52.836;6.376;2023-08-24T00:55:44;4.22;;;3.35;;
55455;SDS011;63021;52.836;6.376;2023-08-24T00:58:10;5.28;;;4.07;;
55455;SDS011;63021;52.836;6.376;2023-08-24T01:00:35;7.50;;;5.03;;
55455;SDS011;63021;52.836;6.376;2023-08-24T01:03:02;4.47;;;4.10;;
55455;SDS011;63021;52.836;6.376;2023-08-24T01:05:28;6.50;;;4.10;;
55455;SDS011;63021;52.836;6.376;2023-08-24T01:07:53;7.32;;;5.25;;
55455;SDS011;63021;52.836;6.376;2023-08-24T01:10:19;6.93;;;5.10;;
55455;SDS011;63021;52.836;6.376;2023-08-24T01:13:07;6.00;;;4.55;;
55455;SDS011;63021;52.836;6.376;2023-08-24T01:15:37;6.45;;;4.78;;
55455;SDS011;63021;52.836;6.376;2023-08-24T01:18:11;4.75;;;4.35;;
55455;SDS011;63021;52.836;6.376;2023-08-24T01:20:40;6.30;;;4.65;;
55455;SDS011;63021;52.836;6.376;2023-08-24T01:23:14;9.38;;;4.70;;
55455;SDS011;63021;52.836;6.376;2023-08-24T01:25:53;5.25;;;4.75;;
55455;SDS011;63021;52.836;6.376;2023-08-24T01:28:40;7.28;;;5.28;;
55455;SDS011;63021;52.836;6.376;2023-08-24T01:31:08;4.93;;;4.53;;
55455;SDS011;63021;52.836;6.376;2023-08-24T01:33:34;6.32;;;5.70;;
55455;SDS011;63021;52.836;6.376;2023-08-24T01:35:59;6.65;;;4.93;;
55455;SDS011;63021;52.836;6.376;2023-08-24T01:38:25;6.70;;;4.75;;
55455;SDS011;63021;52.836;6.376;2023-08-24T01:40:58;5.53;;;4.63;;
55455;SDS011;63021;52.836;6.376;2023-08-24T01:43:31;5.40;;;4.25;;
55455;SDS011;63021;52.836;6.376;2023-08-24T01:46:02;5.88;;;4.30;;
55455;SDS011;63021;52.836;6.376;2023-08-24T01:48:29;6.93;;;5.32;;
55455;SDS011;63021;52.836;6.376;2023-08-24T01:50:57;5.32;;;4.82;;
55455;SDS011;63021;52.836;6.376;2023-08-24T01:53:23;6.68;;;5.28;;
55455;SDS011;63021;52.836;6.376;2023-08-24T01:55:50;6.28;;;4.53;;
55455;SDS011;63021;52.836;6.376;2023-08-24T01:58:16;9.07;;;5.03;;
55455;SDS011;63021;52.836;6.376;2023-08-24T02:00:41;9.60;;;4.55;;
55455;SDS011;63021;52.836;6.376;2023-08-24T02:03:07;7.00;;;4.50;;
55455;SDS011;63021;52.836;6.376;2023-08-24T02:05:32;7.10;;;4.75;;
55455;SDS011;63021;52.836;6.376;2023-08-24T02:07:58;6.43;;;4.82;;
55455;SDS011;63021;52.836;6.376;2023-08-24T02:10:24;7.97;;;4.90;;
55455;SDS011;63021;52.836;6.376;2023-08-24T02:12:50;8.52;;;6.15;;
55455;SDS011;63021;52.836;6.376;2023-08-24T02:15:16;7.90;;;5.20;;
55455;SDS011;63021;52.836;6.376;2023-08-24T02:17:42;7.07;;;5.60;;
55455;SDS011;63021;52.836;6.376;2023-08-24T02:20:08;5.78;;;4.75;;
55455;SDS011;63021;52.836;6.376;2023-08-24T02:22:36;5.85;;;4.60;;
55455;SDS011;63021;52.836;6.376;2023-08-24T02:25:02;7.32;;;5.65;;
55455;SDS011;63021;52.836;6.376;2023-08-24T02:27:30;5.22;;;4.72;;
55455;SDS011;63021;52.836;6.376;2023-08-24T02:29:55;5.47;;;4.97;;
55455;SDS011;63021;52.836;6.376;2023-08-24T02:32:21;7.47;;;4.78;;
55455;SDS011;63021;52.836;6.376;2023-08-24T02:34:46;8.23;;;4.80;;
55455;SDS011;63021;52.836;6.376;2023-08-24T02:37:12;8.40;;;5.03;;
55455;SDS011;63021;52.836;6.376;2023-08-24T02:39:37;6.07;;;4.85;;
55455;SDS011;63021;52.836;6.376;2023-08-24T02:42:02;5.18;;;4.40;;
55455;SDS011;63021;52.836;6.376;2023-08-24T02:44:28;4.90;;;4.38;;
55455;SDS011;63021;52.836;6.376;2023-08-24T02:46:53;5.78;;;4.78;;
55455;SDS011;63021;52.836;6.376;2023-08-24T02:49:19;5.47;;;4.97;;
55455;SDS011;63021;52.836;6.376;2023-08-24T02:51:45;5.32;;;4.82;;
55455;SDS011;63021;52.836;6.376;2023-08-24T02:54:11;12.00;;;5.90;;
55455;SDS011;63021;52.836;6.376;2023-08-24T02:56:36;8.05;;;4.97;;
55455;SDS011;63021;52.836;6.376;2023-08-24T02:59:03;5.95;;;5.10;;
55455;SDS011;63021;52.836;6.376;2023-08-24T03:01:29;9.05;;;5.40;;
55455;SDS011;63021;52.836;6.376;2023-08-24T03:03:55;9.35;;;5.70;;
55455;SDS011;63021;52.836;6.376;2023-08-24T03:06:20;7.75;;;5.32;;
55455;SDS011;63021;52.836;6.376;2023-08-24T03:08:46;6.13;;;5.53;;
55455;SDS011;63021;52.836;6.376;2023-08-24T03:11:11;5.95;;;5.35;;
55455;SDS011;63021;52.836;6.376;2023-08-24T03:13:37;8.82;;;5.95;;
55455;SDS011;63021;52.836;6.376;2023-08-24T03:16:04;7.45;;;5.07;;
55455;SDS011;63021;52.836;6.376;2023-08-24T03:18:30;11.65;;;6.95;;
55455;SDS011;63021;52.836;6.376;2023-08-24T03:20:56;7.38;;;5.20;;
55455;SDS011;63021;52.836;6.376;2023-08-24T03:23:21;5.85;;;5.07;;
55455;SDS011;63021;52.836;6.376;2023-08-24T03:25:47;7.15;;;5.25;;
55455;SDS011;63021;52.836;6.376;2023-08-24T03:28:12;7.07;;;5.10;;
55455;SDS011;63021;52.836;6.376;2023-08-24T03:30:39;6.22;;;5.30;;
55455;SDS011;63021;52.836;6.376;2023-08-24T03:35:37;6.78;;;5.13;;
55455;SDS011;63021;52.836;6.376;2023-08-24T03:38:02;7.20;;;4.97;;
55455;SDS011;63021;52.836;6.376;2023-08-24T03:40:29;5.47;;;4.97;;
55455;SDS011;63021;52.836;6.376;2023-08-24T03:42:55;7.25;;;4.80;;
55455;SDS011;63021;52.836;6.376;2023-08-24T03:45:21;10.82;;;4.90;;
55455;SDS011;63021;52.836;6.376;2023-08-24T03:47:47;6.55;;;5.40;;
55455;SDS011;63021;52.836;6.376;2023-08-24T03:50:13;9.27;;;5.10;;
55455;SDS011;63021;52.836;6.376;2023-08-24T03:52:38;8.48;;;5.47;;
55455;SDS011;63021;52.836;6.376;2023-08-24T03:55:05;5.63;;;4.93;;
55455;SDS011;63021;52.836;6.376;2023-08-24T03:57:31;5.68;;;4.78;;
55455;SDS011;63021;52.836;6.376;2023-08-24T03:59:57;8.70;;;5.95;;
55455;SDS011;63021;52.836;6.376;2023-08-24T04:02:22;10.23;;;5.95;;
55455;SDS011;63021;52.836;6.376;2023-08-24T04:04:48;6.90;;;6.22;;
55455;SDS011;63021;52.836;6.376;2023-08-24T04:07:14;12.65;;;6.85;;
55455;SDS011;63021;52.836;6.376;2023-08-24T04:09:40;7.20;;;6.45;;
55455;SDS011;63021;52.836;6.376;2023-08-24T04:12:05;5.53;;;5.07;;
55455;SDS011;63021;52.836;6.376;2023-08-24T04:14:31;5.60;;;5.03;;
55455;SDS011;63021;52.836;6.376;2023-08-24T04:16:56;5.20;;;4.72;;
55455;SDS011;63021;52.836;6.376;2023-08-24T04:19:22;5.88;;;4.75;;
55455;SDS011;63021;52.836;6.376;2023-08-24T04:21:47;5.47;;;4.95;;
55455;SDS011;63021;52.836;6.376;2023-08-24T04:24:12;6.18;;;5.10;;
55455;SDS011;63021;52.836;6.376;2023-08-24T04:26:38;6.50;;;5.00;;
55455;SDS011;63021;52.836;6.376;2023-08-24T04:29:03;5.68;;;5.18;;
55455;SDS011;63021;52.836;6.376;2023-08-24T04:31:29;7.47;;;5.03;;
55455;SDS011;63021;52.836;6.376;2023-08-24T04:33:54;7.40;;;5.78;;
55455;SDS011;63021;52.836;6.376;2023-08-24T04:36:19;6.72;;;6.00;;
55455;SDS011;63021;52.836;6.376;2023-08-24T04:38:45;7.57;;;5.13;;
55455;SDS011;63021;52.836;6.376;2023-08-24T04:41:10;7.10;;;6.13;;
55455;SDS011;63021;52.836;6.376;2023-08-24T04:43:37;9.27;;;7.00;;
55455;SDS011;63021;52.836;6.376;2023-08-24T04:46:03;12.63;;;6.55;;
55455;SDS011;63021;52.836;6.376;2023-08-24T04:48:28;9.32;;;7.32;;
55455;SDS011;63021;52.836;6.376;2023-08-24T04:50:59;11.90;;;6.97;;
55455;SDS011;63021;52.836;6.376;2023-08-24T04:53:25;8.98;;;6.65;;
55455;SDS011;63021;52.836;6.376;2023-08-24T04:55:51;10.77;;;6.32;;
55455;SDS011;63021;52.836;6.376;2023-08-24T04:58:17;7.97;;;6.07;;
55455;SDS011;63021;52.836;6.376;2023-08-24T05:00:43;8.38;;;6.20;;
55455;SDS011;63021;52.836;6.376;2023-08-24T05:03:08;12.57;;;6.68;;
55455;SDS011;63021;52.836;6.376;2023-08-24T05:05:34;10.05;;;6.93;;
55455;SDS011;63021;52.836;6.376;2023-08-24T05:08:01;9.85;;;6.63;;
55455;SDS011;63021;52.836;6.376;2023-08-24T05:10:31;8.75;;;6.30;;
55455;SDS011;63021;52.836;6.376;2023-08-24T05:12:57;8.27;;;6.03;;
55455;SDS011;63021;52.836;6.376;2023-08-24T05:15:23;6.50;;;5.88;;
55455;SDS011;63021;52.836;6.376;2023-08-24T05:17:49;8.40;;;5.82;;
55455;SDS011;63021;52.836;6.376;2023-08-24T05:20:16;11.07;;;6.13;;
55455;SDS011;63021;52.836;6.376;2023-08-24T05:22:41;10.10;;;6.63;;
55455;SDS011;63021;52.836;6.376;2023-08-24T05:25:07;13.52;;;6.57;;
55455;SDS011;63021;52.836;6.376;2023-08-24T05:27:32;8.93;;;6.13;;
55455;SDS011;63021;52.836;6.376;2023-08-24T05:29:58;7.60;;;5.55;;
55455;SDS011;63021;52.836;6.376;2023-08-24T05:32:23;7.25;;;5.75;;
55455;SDS011;63021;52.836;6.376;2023-08-24T05:34:49;12.15;;;6.75;;
55455;SDS011;63021;52.836;6.376;2023-08-24T05:37:15;9.35;;;6.32;;
55455;SDS011;63021;52.836;6.376;2023-08-24T05:39:41;9.90;;;6.05;;
55455;SDS011;63021;52.836;6.376;2023-08-24T05:42:06;10.55;;;6.60;;
55455;SDS011;63021;52.836;6.376;2023-08-24T05:44:32;9.13;;;6.53;;
55455;SDS011;63021;52.836;6.376;2023-08-24T05:46:58;9.38;;;6.53;;
55455;SDS011;63021;52.836;6.376;2023-08-24T05:49:23;10.30;;;6.25;;
55455;SDS011;63021;52.836;6.376;2023-08-24T05:51:50;12.05;;;6.78;;
55455;SDS011;63021;52.836;6.376;2023-08-24T05:54:16;9.77;;;7.22;;
55455;SDS011;63021;52.836;6.376;2023-08-24T05:56:47;13.05;;;7.35;;
55455;SDS011;63021;52.836;6.376;2023-08-24T05:59:15;11.40;;;6.85;;
55455;SDS011;63021;52.836;6.376;2023-08-24T06:01:41;11.75;;;7.13;;
55455;SDS011;63021;52.836;6.376;2023-08-24T06:04:09;11.23;;;7.55;;
55455;SDS011;63021;52.836;6.376;2023-08-24T06:06:35;11.93;;;7.40;;
55455;SDS011;63021;52.836;6.376;2023-08-24T06:09:01;10.13;;;6.57;;
55455;SDS011;63021;52.836;6.376;2023-08-24T06:11:30;9.90;;;6.97;;
55455;SDS011;63021;52.836;6.376;2023-08-24T06:13:56;13.85;;;7.05;;
55455;SDS011;63021;52.836;6.376;2023-08-24T06:16:21;11.60;;;6.55;;
55455;SDS011;63021;52.836;6.376;2023-08-24T06:18:46;22.80;;;6.68;;
55455;SDS011;63021;52.836;6.376;2023-08-24T06:21:12;12.27;;;6.95;;
55455;SDS011;63021;52.836;6.376;2023-08-24T06:23:38;9.70;;;6.25;;
55455;SDS011;63021;52.836;6.376;2023-08-24T06:26:04;10.57;;;5.60;;
55455;SDS011;63021;52.836;6.376;2023-08-24T06:28:32;9.57;;;5.72;;
55455;SDS011;63021;52.836;6.376;2023-08-24T06:30:59;9.82;;;5.50;;
55455;SDS011;63021;52.836;6.376;2023-08-24T06:33:28;10.85;;;5.75;;
55455;SDS011;63021;52.836;6.376;2023-08-24T06:35:56;11.75;;;5.70;;
55455;SDS011;63021;52.836;6.376;2023-08-24T06:38:22;7.40;;;4.57;;
55455;SDS011;63021;52.836;6.376;2023-08-24T06:40:47;7.55;;;4.82;;
55455;SDS011;63021;52.836;6.376;2023-08-24T06:43:13;9.32;;;5.82;;
55455;SDS011;63021;52.836;6.376;2023-08-24T06:45:39;8.23;;;5.30;;
55455;SDS011;63021;52.836;6.376;2023-08-24T06:48:05;7.95;;;5.47;;
55455;SDS011;63021;52.836;6.376;2023-08-24T06:50:32;11.45;;;7.05;;
55455;SDS011;63021;52.836;6.376;2023-08-24T06:52:57;11.93;;;7.03;;
55455;SDS011;63021;52.836;6.376;2023-08-24T06:55:23;9.77;;;6.05;;
55455;SDS011;63021;52.836;6.376;2023-08-24T06:57:48;8.90;;;6.78;;
55455;SDS011;63021;52.836;6.376;2023-08-24T07:00:17;17.15;;;6.78;;
55455;SDS011;63021;52.836;6.376;2023-08-24T07:02:46;15.68;;;6.60;;
55455;SDS011;63021;52.836;6.376;2023-08-24T07:05:12;16.17;;;6.80;;
55455;SDS011;63021;52.836;6.376;2023-08-24T07:07:38;13.75;;;7.38;;
55455;SDS011;63021;52.836;6.376;2023-08-24T07:10:03;11.45;;;7.60;;
55455;SDS011;63021;52.836;6.376;2023-08-24T07:12:31;10.02;;;7.10;;
55455;SDS011;63021;52.836;6.376;2023-08-24T07:14:56;11.82;;;7.15;;
55455;SDS011;63021;52.836;6.376;2023-08-24T07:17:22;11.88;;;7.60;;
55455;SDS011;63021;52.836;6.376;2023-08-24T07:19:47;16.50;;;8.38;;
55455;SDS011;63021;52.836;6.376;2023-08-24T07:22:13;11.15;;;8.02;;
55455;SDS011;63021;52.836;6.376;2023-08-24T07:24:39;9.90;;;7.47;;
55455;SDS011;63021;52.836;6.376;2023-08-24T07:27:04;13.55;;;8.10;;
55455;SDS011;63021;52.836;6.376;2023-08-24T07:29:30;12.55;;;8.50;;
55455;SDS011;63021;52.836;6.376;2023-08-24T07:31:56;9.63;;;8.18;;
55455;SDS011;63021;52.836;6.376;2023-08-24T07:34:21;12.60;;;7.93;;
55455;SDS011;63021;52.836;6.376;2023-08-24T07:36:47;9.45;;;7.35;;
55455;SDS011;63021;52.836;6.376;2023-08-24T07:39:13;12.55;;;7.43;;
55455;SDS011;63021;52.836;6.376;2023-08-24T07:41:40;11.75;;;7.43;;
55455;SDS011;63021;52.836;6.376;2023-08-24T07:44:06;15.70;;;7.53;;
55455;SDS011;63021;52.836;6.376;2023-08-24T07:46:32;17.17;;;8.32;;
55455;SDS011;63021;52.836;6.376;2023-08-24T07:48:58;12.10;;;7.68;;
55455;SDS011;63021;52.836;6.376;2023-08-24T07:51:23;12.85;;;7.65;;
55455;SDS011;63021;52.836;6.376;2023-08-24T07:53:49;19.55;;;8.15;;
55455;SDS011;63021;52.836;6.376;2023-08-24T07:56:17;13.10;;;7.03;;
55455;SDS011;63021;52.836;6.376;2023-08-24T07:58:42;16.15;;;7.60;;
55455;SDS011;63021;52.836;6.376;2023-08-24T08:01:08;7.40;;;6.65;;
55455;SDS011;63021;52.836;6.376;2023-08-24T08:03:34;13.95;;;7.38;;
55455;SDS011;63021;52.836;6.376;2023-08-24T08:06:02;12.20;;;7.75;;
55455;SDS011;63021;52.836;6.376;2023-08-24T08:08:28;12.35;;;7.45;;
55455;SDS011;63021;52.836;6.376;2023-08-24T08:10:58;10.90;;;6.93;;
55455;SDS011;63021;52.836;6.376;2023-08-24T08:13:25;19.15;;;8.52;;
55455;SDS011;63021;52.836;6.376;2023-08-24T08:15:51;13.52;;;7.82;;
55455;SDS011;63021;52.836;6.376;2023-08-24T08:18:17;11.57;;;7.53;;
55455;SDS011;63021;52.836;6.376;2023-08-24T08:20:42;9.95;;;6.78;;
55455;SDS011;63021;52.836;6.376;2023-08-24T08:23:08;13.02;;;6.90;;
55455;SDS011;63021;52.836;6.376;2023-08-24T08:25:33;10.20;;;7.07;;
55455;SDS011;63021;52.836;6.376;2023-08-24T08:27:58;11.48;;;8.02;;
55455;SDS011;63021;52.836;6.376;2023-08-24T08:30:24;10.85;;;6.72;;
55455;SDS011;63021;52.836;6.376;2023-08-24T08:32:49;12.68;;;7.60;;
55455;SDS011;63021;52.836;6.376;2023-08-24T08:35:17;9.77;;;6.80;;
55455;SDS011;63021;52.836;6.376;2023-08-24T08:37:42;9.00;;;6.75;;
55455;SDS011;63021;52.836;6.376;2023-08-24T08:40:11;12.15;;;7.13;;
55455;SDS011;63021;52.836;6.376;2023-08-24T08:42:37;7.60;;;6.78;;
55455;SDS011;63021;52.836;6.376;2023-08-24T08:45:04;11.32;;;6.93;;
55455;SDS011;63021;52.836;6.376;2023-08-24T08:47:33;10.00;;;6.70;;
55455;SDS011;63021;52.836;6.376;2023-08-24T08:50:02;13.80;;;7.15;;
55455;SDS011;63021;52.836;6.376;2023-08-24T08:52:28;16.90;;;7.68;;
55455;SDS011;63021;52.836;6.376;2023-08-24T08:54:54;14.88;;;8.52;;
55455;SDS011;63021;52.836;6.376;2023-08-24T08:57:20;14.32;;;7.05;;
55455;SDS011;63021;52.836;6.376;2023-08-24T08:59:48;9.35;;;7.53;;
55455;SDS011;63021;52.836;6.376;2023-08-24T09:02:16;11.40;;;7.45;;
55455;SDS011;63021;52.836;6.376;2023-08-24T09:04:45;11.30;;;7.45;;
55455;SDS011;63021;52.836;6.376;2023-08-24T09:07:13;11.57;;;7.68;;
55455;SDS011;63021;52.836;6.376;2023-08-24T09:09:38;13.27;;;7.50;;
55455;SDS011;63021;52.836;6.376;2023-08-24T09:12:05;12.10;;;7.70;;
55455;SDS011;63021;52.836;6.376;2023-08-24T09:14:32;16.05;;;8.50;;
55455;SDS011;63021;52.836;6.376;2023-08-24T09:16:58;12.20;;;7.35;;
55455;SDS011;63021;52.836;6.376;2023-08-24T09:19:27;11.20;;;8.00;;
55455;SDS011;63021;52.836;6.376;2023-08-24T09:21:57;8.02;;;7.07;;
55455;SDS011;63021;52.836;6.376;2023-08-24T09:24:33;10.65;;;7.40;;
55455;SDS011;63021;52.836;6.376;2023-08-24T09:27:00;10.63;;;7.70;;
55455;SDS011;63021;52.836;6.376;2023-08-24T09:29:38;13.48;;;8.70;;
55455;SDS011;63021;52.836;6.376;2023-08-24T09:32:04;14.85;;;8.20;;
55455;SDS011;63021;52.836;6.376;2023-08-24T09:34:33;10.85;;;7.85;;
55455;SDS011;63021;52.836;6.376;2023-08-24T09:36:58;9.45;;;7.30;;
55455;SDS011;63021;52.836;6.376;2023-08-24T09:39:24;10.23;;;7.47;;
55455;SDS011;63021;52.836;6.376;2023-08-24T09:41:50;13.95;;;7.70;;
55455;SDS011;63021;52.836;6.376;2023-08-24T09:44:16;11.90;;;7.07;;
55455;SDS011;63021;52.836;6.376;2023-08-24T09:46:43;14.18;;;7.93;;
55455;SDS011;63021;52.836;6.376;2023-08-24T09:49:11;9.80;;;7.10;;
55455;SDS011;63021;52.836;6.376;2023-08-24T09:51:38;13.73;;;7.90;;
55455;SDS011;63021;52.836;6.376;2023-08-24T09:54:06;12.05;;;7.30;;
55455;SDS011;63021;52.836;6.376;2023-08-24T09:56:40;13.20;;;7.78;;
55455;SDS011;63021;52.836;6.376;2023-08-24T09:59:13;7.40;;;6.53;;
55455;SDS011;63021;52.836;6.376;2023-08-24T10:01:42;15.40;;;7.38;;
55455;SDS011;63021;52.836;6.376;2023-08-24T10:04:15;8.77;;;6.28;;
55455;SDS011;63021;52.836;6.376;2023-08-24T10:06:44;6.82;;;5.72;;
55455;SDS011;63021;52.836;6.376;2023-08-24T10:09:25;13.90;;;6.88;;
55455;SDS011;63021;52.836;6.376;2023-08-24T10:11:56;11.65;;;7.55;;
55455;SDS011;63021;52.836;6.376;2023-08-24T10:17:10;13.25;;;7.03;;
55455;SDS011;63021;52.836;6.376;2023-08-24T10:19:36;15.20;;;8.07;;
55455;SDS011;63021;52.836;6.376;2023-08-24T10:22:02;9.30;;;8.15;;
55455;SDS011;63021;52.836;6.376;2023-08-24T10:24:28;10.18;;;7.70;;
55455;SDS011;63021;52.836;6.376;2023-08-24T10:26:56;10.00;;;7.07;;
55455;SDS011;63021;52.836;6.376;2023-08-24T10:29:23;10.50;;;7.90;;
55455;SDS011;63021;52.836;6.376;2023-08-24T10:31:49;13.10;;;7.72;;
55455;SDS011;63021;52.836;6.376;2023-08-24T10:34:15;9.63;;;7.35;;
55455;SDS011;63021;52.836;6.376;2023-08-24T10:36:41;12.00;;;8.32;;
55455;SDS011;63021;52.836;6.376;2023-08-24T10:39:07;10.77;;;7.15;;
55455;SDS011;63021;52.836;6.376;2023-08-24T10:41:48;10.43;;;7.78;;
55455;SDS011;63021;52.836;6.376;2023-08-24T10:44:36;8.95;;;7.43;;
55455;SDS011;63021;52.836;6.376;2023-08-24T10:49:57;12.52;;;7.53;;
55455;SDS011;63021;52.836;6.376;2023-08-24T10:52:31;11.63;;;8.20;;
55455;SDS011;63021;52.836;6.376;2023-08-24T10:55:04;14.65;;;8.20;;
55455;SDS011;63021;52.836;6.376;2023-08-24T10:57:54;13.70;;;8.77;;
55455;SDS011;63021;52.836;6.376;2023-08-24T11:00:29;12.80;;;8.80;;
55455;SDS011;63021;52.836;6.376;2023-08-24T11:02:55;13.68;;;9.00;;
55455;SDS011;63021;52.836;6.376;2023-08-24T11:07:59;12.88;;;8.70;;
55455;SDS011;63021;52.836;6.376;2023-08-24T11:10:28;16.35;;;9.48;;
55455;SDS011;63021;52.836;6.376;2023-08-24T11:13:11;14.07;;;8.90;;
55455;SDS011;63021;52.836;6.376;2023-08-24T11:15:48;16.95;;;10.10;;
55455;SDS011;63021;52.836;6.376;2023-08-24T11:18:27;18.88;;;9.43;;
55455;SDS011;63021;52.836;6.376;2023-08-24T11:20:55;18.05;;;9.30;;
55455;SDS011;63021;52.836;6.376;2023-08-24T11:23:24;13.52;;;9.13;;
55455;SDS011;63021;52.836;6.376;2023-08-24T11:25:51;14.07;;;9.77;;
55455;SDS011;63021;52.836;6.376;2023-08-24T11:28:24;11.93;;;9.43;;
55455;SDS011;63021;52.836;6.376;2023-08-24T11:30:51;11.70;;;9.82;;
55455;SDS011;63021;52.836;6.376;2023-08-24T11:33:33;19.90;;;9.73;;
55455;SDS011;63021;52.836;6.376;2023-08-24T11:36:00;23.15;;;9.93;;
55455;SDS011;63021;52.836;6.376;2023-08-24T11:38:37;16.92;;;8.82;;
55455;SDS011;63021;52.836;6.376;2023-08-24T11:41:14;14.93;;;9.95;;
55455;SDS011;63021;52.836;6.376;2023-08-24T11:46:07;13.35;;;9.35;;
55455;SDS011;63021;52.836;6.376;2023-08-24T11:48:33;11.13;;;9.20;;
55455;SDS011;63021;52.836;6.376;2023-08-24T11:50:58;11.38;;;8.88;;
55455;SDS011;63021;52.836;6.376;2023-08-24T11:53:24;14.55;;;9.48;;
55455;SDS011;63021;52.836;6.376;2023-08-24T11:55:54;10.07;;;8.77;;
55455;SDS011;63021;52.836;6.376;2023-08-24T11:58:20;12.45;;;9.50;;
55455;SDS011;63021;52.836;6.376;2023-08-24T12:00:46;11.20;;;9.02;;
55455;SDS011;63021;52.836;6.376;2023-08-24T12:03:12;11.90;;;9.15;;
55455;SDS011;63021;52.836;6.376;2023-08-24T12:05:38;13.90;;;8.52;;
55455;SDS011;63021;52.836;6.376;2023-08-24T12:08:07;13.48;;;9.20;;
55455;SDS011;63021;52.836;6.376;2023-08-24T12:10:40;15.40;;;8.73;;
55455;SDS011;63021;52.836;6.376;2023-08-24T12:13:07;10.73;;;8.48;;
55455;SDS011;63021;52.836;6.376;2023-08-24T12:15:36;14.73;;;9.32;;
55455;SDS011;63021;52.836;6.376;2023-08-24T12:18:11;12.32;;;8.85;;
55455;SDS011;63021;52.836;6.376;2023-08-24T12:20:38;12.52;;;9.07;;
55455;SDS011;63021;52.836;6.376;2023-08-24T12:23:06;12.73;;;8.70;;
55455;SDS011;63021;52.836;6.376;2023-08-24T12:25:35;9.63;;;8.02;;
55455;SDS011;63021;52.836;6.376;2023-08-24T12:28:12;11.43;;;8.23;;
55455;SDS011;63021;52.836;6.376;2023-08-24T12:30:47;25.50;;;9.18;;
55455;SDS011;63021;52.836;6.376;2023-08-24T12:35:47;10.68;;;8.88;;
55455;SDS011;63021;52.836;6.376;2023-08-24T12:38:13;12.57;;;9.50;;
55455;SDS011;63021;52.836;6.376;2023-08-24T12:40:38;14.20;;;8.48;;
55455;SDS011;63021;52.836;6.376;2023-08-24T12:43:04;10.95;;;9.20;;
55455;SDS011;63021;52.836;6.376;2023-08-24T12:45:31;14.05;;;8.32;;
55455;SDS011;63021;52.836;6.376;2023-08-24T12:47:56;12.27;;;8.48;;
55455;SDS011;63021;52.836;6.376;2023-08-24T12:50:21;10.18;;;7.97;;
55455;SDS011;63021;52.836;6.376;2023-08-24T12:52:47;12.80;;;9.65;;
55455;SDS011;63021;52.836;6.376;2023-08-24T12:55:12;12.10;;;9.13;;
55455;SDS011;63021;52.836;6.376;2023-08-24T12:57:38;10.52;;;8.07;;
55455;SDS011;63021;52.836;6.376;2023-08-24T13:00:03;13.18;;;8.40;;
55455;SDS011;63021;52.836;6.376;2023-08-24T13:02:33;12.07;;;9.00;;
55455;SDS011;63021;52.836;6.376;2023-08-24T13:04:58;12.63;;;9.23;;
55455;SDS011;63021;52.836;6.376;2023-08-24T13:07:26;13.10;;;9.50;;
55455;SDS011;63021;52.836;6.376;2023-08-24T13:09:51;13.40;;;9.50;;
55455;SDS011;63021;52.836;6.376;2023-08-24T13:12:17;13.55;;;8.35;;
55455;SDS011;63021;52.836;6.376;2023-08-24T13:14:42;12.68;;;8.32;;
55455;SDS011;63021;52.836;6.376;2023-08-24T13:17:08;13.55;;;7.57;;
55455;SDS011;63021;52.836;6.376;2023-08-24T13:19:33;14.80;;;6.82;;
55455;SDS011;63021;52.836;6.376;2023-08-24T13:21:58;10.40;;;7.53;;
55455;SDS011;63021;52.836;6.376;2023-08-24T13:24:24;11.05;;;7.63;;
55455;SDS011;63021;52.836;6.376;2023-08-24T13:26:52;12.15;;;9.13;;
55455;SDS011;63021;52.836;6.376;2023-08-24T13:29:18;11.27;;;8.00;;
55455;SDS011;63021;52.836;6.376;2023-08-24T13:31:43;12.02;;;8.93;;
55455;SDS011;63021;52.836;6.376;2023-08-24T13:34:08;13.15;;;9.20;;
55455;SDS011;63021;52.836;6.376;2023-08-24T13:36:37;19.40;;;9.40;;
55455;SDS011;63021;52.836;6.376;2023-08-24T13:39:02;14.48;;;10.27;;
55455;SDS011;63021;52.836;6.376;2023-08-24T13:41:29;12.88;;;10.48;;
55455;SDS011;63021;52.836;6.376;2023-08-24T13:43:55;11.48;;;9.70;;
55455;SDS011;63021;52.836;6.376;2023-08-24T13:46:20;10.85;;;9.75;;
55455;SDS011;63021;52.836;6.376;2023-08-24T13:48:45;14.00;;;10.98;;
55455;SDS011;63021;52.836;6.376;2023-08-24T13:51:11;13.27;;;10.60;;
55455;SDS011;63021;52.836;6.376;2023-08-24T13:53:37;13.65;;;9.98;;
55455;SDS011;63021;52.836;6.376;2023-08-24T13:56:03;13.93;;;11.02;;
55455;SDS011;63021;52.836;6.376;2023-08-24T13:58:28;13.60;;;9.57;;
55455;SDS011;63021;52.836;6.376;2023-08-24T14:00:57;10.68;;;9.68;;
55455;SDS011;63021;52.836;6.376;2023-08-24T14:03:23;15.13;;;9.48;;
55455;SDS011;63021;52.836;6.376;2023-08-24T14:05:49;15.48;;;10.07;;
55455;SDS011;63021;52.836;6.376;2023-08-24T14:08:16;10.32;;;9.27;;
55455;SDS011;63021;52.836;6.376;2023-08-24T14:10:41;14.20;;;9.68;;
55455;SDS011;63021;52.836;6.376;2023-08-24T14:13:07;13.13;;;11.15;;
55455;SDS011;63021;52.836;6.376;2023-08-24T14:15:32;17.48;;;10.48;;
55455;SDS011;63021;52.836;6.376;2023-08-24T14:17:58;15.25;;;11.73;;
55455;SDS011;63021;52.836;6.376;2023-08-24T14:20:23;14.73;;;10.93;;
55455;SDS011;63021;52.836;6.376;2023-08-24T14:22:49;13.52;;;11.85;;
55455;SDS011;63021;52.836;6.376;2023-08-24T14:25:14;13.93;;;11.02;;
55455;SDS011;63021;52.836;6.376;2023-08-24T14:27:40;12.75;;;10.23;;
55455;SDS011;63021;52.836;6.376;2023-08-24T14:30:09;12.05;;;10.98;;
55455;SDS011;63021;52.836;6.376;2023-08-24T14:32:35;12.57;;;10.82;;
55455;SDS011;63021;52.836;6.376;2023-08-24T14:35:01;13.50;;;12.20;;
55455;SDS011;63021;52.836;6.376;2023-08-24T14:37:28;15.13;;;11.23;;
55455;SDS011;63021;52.836;6.376;2023-08-24T14:39:55;13.55;;;12.15;;
55455;SDS011;63021;52.836;6.376;2023-08-24T14:42:20;14.63;;;11.27;;
55455;SDS011;63021;52.836;6.376;2023-08-24T14:44:46;13.07;;;11.68;;
55455;SDS011;63021;52.836;6.376;2023-08-24T14:47:11;20.63;;;13.18;;
55455;SDS011;63021;52.836;6.376;2023-08-24T14:49:37;14.77;;;12.82;;
55455;SDS011;63021;52.836;6.376;2023-08-24T14:52:02;14.43;;;12.18;;
55455;SDS011;63021;52.836;6.376;2023-08-24T14:54:31;17.40;;;12.77;;